createdAt,value
2019-05-14T07:23:30.400Z,97936.23
2019-05-14T07:26:00.138Z,97951.00
2019-05-14T07:28:29.883Z,97948.48
2019-05-14T07:30:59.601Z,97940.55
2019-05-14T07:33:29.592Z,97929.14
2019-05-14T07:35:59.628Z,97931.86
2019-05-14T07:38:29.124Z,97939.64
2019-05-14T07:40:58.777Z,97934.65
2019-05-14T07:43:28.871Z,97927.65
2019-05-14T07:45:58.685Z,97930.16
2019-05-14T07:48:28.904Z,97927.20
2019-05-14T07:51:00.059Z,97920.80
2019-05-14T07:53:38.711Z,97904.88
2019-05-14T07:56:01.029Z,97912.83
2019-05-14T07:58:30.861Z,97930.67
2019-05-14T08:01:00.537Z,97920.48
2019-05-14T08:03:30.239Z,97928.31
2019-05-14T08:06:00.009Z,97930.02
2019-05-14T08:08:29.709Z,97926.34
2019-05-14T08:10:59.514Z,97918.36
2019-05-14T08:13:29.232Z,97915.99
2019-05-14T08:15:58.790Z,97906.02
2019-05-14T08:18:29.092Z,97910.54
2019-05-14T08:20:59.340Z,97909.60
2019-05-14T08:23:29.297Z,97897.98
2019-05-14T08:26:02.681Z,97895.98
2019-05-14T08:28:30.349Z,97897.53
2019-05-14T08:31:00.116Z,97906.94
2019-05-14T08:33:29.602Z,97915.77
2019-05-14T08:35:59.005Z,97912.03
2019-05-14T08:38:28.627Z,97899.75
2019-05-14T08:40:59.062Z,97919.27
2019-05-14T08:43:29.306Z,97920.22
2019-05-14T08:45:59.294Z,97922.14
2019-05-14T08:48:29.653Z,97906.54
2019-05-14T08:50:59.555Z,97890.75
2019-05-14T08:53:29.202Z,97880.63
2019-05-14T08:55:59.102Z,97880.41
2019-05-14T08:58:30.130Z,97886.78
2019-05-14T09:00:59.725Z,97871.70
2019-05-14T09:03:29.408Z,97862.17
2019-05-14T09:06:00.814Z,97877.52
2019-05-14T09:08:30.824Z,97865.25
2019-05-14T09:11:00.682Z,97866.98
2019-05-14T09:13:30.393Z,97864.12
2019-05-14T09:15:59.998Z,97856.14
2019-05-14T09:18:30.038Z,97840.28
2019-05-14T09:20:59.440Z,97823.81
2019-05-14T09:23:29.174Z,97851.49
2019-05-14T09:25:59.068Z,97838.44
2019-05-14T09:28:28.787Z,97826.63
2019-05-14T09:30:59.630Z,97833.83
2019-05-14T09:33:29.897Z,97834.41
2019-05-14T09:36:13.554Z,97847.55
2019-05-14T09:38:31.009Z,97845.52
2019-05-14T09:41:11.199Z,97840.45
2019-05-14T09:43:32.172Z,97843.51
2019-05-14T09:46:01.640Z,97832.02
2019-05-14T09:48:31.245Z,97836.65
2019-05-14T09:51:01.045Z,97841.37
2019-05-14T09:53:30.522Z,97843.50
2019-05-14T09:55:59.979Z,97847.67
2019-05-14T09:58:29.384Z,97847.02
2019-05-14T10:00:59.321Z,97834.88
2019-05-14T10:03:29.121Z,97827.42
2019-05-14T10:05:59.161Z,97831.55
2019-05-14T10:08:29.079Z,97832.73
2019-05-14T10:11:00.351Z,97840.80
2019-05-14T10:13:30.129Z,97842.47
2019-05-14T10:15:59.845Z,97843.44
2019-05-14T10:18:29.481Z,97841.16
2019-05-14T10:20:59.249Z,97830.77
2019-05-14T10:23:29.045Z,97833.02
2019-05-14T10:25:58.458Z,97826.92
2019-05-14T10:28:28.794Z,97811.39
2019-05-14T10:31:00.662Z,97818.77
2019-05-14T10:33:30.538Z,97815.15
2019-05-14T10:35:59.930Z,97792.34
2019-05-14T10:38:29.761Z,97794.77
2019-05-14T10:40:59.655Z,97786.14
2019-05-14T10:43:29.096Z,97784.86
2019-05-14T10:45:58.789Z,97793.98
2019-05-14T10:48:29.137Z,97805.89
2019-05-14T10:51:03.087Z,97798.83
2019-05-14T10:53:30.346Z,97795.94
2019-05-14T10:56:00.159Z,97785.27
2019-05-14T10:58:29.655Z,97779.62
2019-05-14T11:00:59.254Z,97782.86
2019-05-14T11:03:30.088Z,97784.50
2019-05-14T11:06:00.132Z,97790.89
2019-05-14T11:08:29.895Z,97793.98
2019-05-14T11:11:03.700Z,97775.95
2019-05-14T11:13:30.575Z,97779.31
2019-05-14T11:16:00.248Z,97782.61
2019-05-14T11:18:30.029Z,97770.72
2019-05-14T11:21:18.500Z,97768.87
2019-05-14T11:23:31.175Z,97775.86
2019-05-14T11:26:00.773Z,97775.31
2019-05-14T11:28:30.380Z,97777.22
2019-05-14T11:30:59.877Z,97776.72
2019-05-14T11:33:29.691Z,97771.70
2019-05-14T11:35:59.405Z,97760.98
2019-05-14T11:38:36.888Z,97765.41
2019-05-14T11:41:00.038Z,97777.24
2019-05-14T11:43:29.758Z,97776.69
2019-05-14T11:45:59.552Z,97776.19
2019-05-14T11:48:29.079Z,97772.09
2019-05-14T11:50:59.573Z,97774.69
2019-05-14T11:53:29.512Z,97773.09
2019-05-14T11:55:59.210Z,97775.50
2019-05-14T11:58:29.541Z,97773.78
2019-05-14T12:00:59.463Z,97773.31
2019-05-14T12:03:29.283Z,97768.72
2019-05-14T12:05:59.137Z,97767.59
2019-05-14T12:08:28.882Z,97757.27
2019-05-14T12:10:59.314Z,97763.21
2019-05-14T12:13:32.684Z,97760.10
2019-05-14T12:16:00.002Z,97763.75
2019-05-14T12:18:29.784Z,97749.20
2019-05-14T12:20:59.603Z,97751.70
2019-05-14T12:23:29.915Z,97751.42
2019-05-14T12:25:59.861Z,97735.38
2019-05-14T12:28:29.734Z,97737.80
2019-05-14T12:30:59.430Z,97739.72
2019-05-14T12:33:30.985Z,97732.04
2019-05-14T12:36:00.800Z,97726.61
2019-05-14T12:38:30.641Z,97722.92
2019-05-14T12:41:00.335Z,97718.42
2019-05-14T12:43:30.140Z,97714.08
2019-05-14T12:45:59.719Z,97714.61
2019-05-14T12:48:29.934Z,97713.70
2019-05-14T12:50:59.899Z,97713.70
2019-05-14T12:53:29.412Z,97702.94
2019-05-14T12:55:59.186Z,97700.45
2019-05-14T12:58:28.910Z,97698.17
2019-05-14T13:00:59.564Z,97694.02
2019-05-14T13:03:29.444Z,97693.34
2019-05-14T13:05:58.934Z,97686.56
2019-05-14T13:08:28.312Z,97695.20
2019-05-14T13:10:58.718Z,97690.34
2019-05-14T13:13:29.180Z,97685.89
2019-05-14T13:15:58.822Z,97683.24
2019-05-14T13:18:29.099Z,97686.73
2019-05-14T13:20:58.976Z,97678.78
2019-05-14T13:23:29.341Z,97681.27
2019-05-14T13:25:59.540Z,97674.46
2019-05-14T13:28:29.409Z,97664.55
2019-05-14T13:30:59.738Z,97664.38
2019-05-14T13:33:29.552Z,97666.73
2019-05-14T13:35:59.579Z,97652.83
2019-05-14T13:38:29.490Z,97654.45
2019-05-14T13:40:59.417Z,97655.29
2019-05-14T13:43:30.491Z,97657.11
2019-05-14T13:46:00.283Z,97651.91
2019-05-14T13:48:30.048Z,97652.64
2019-05-14T13:50:59.489Z,97642.72
2019-05-14T13:53:29.716Z,97637.97
2019-05-14T13:55:59.567Z,97641.67
2019-05-14T13:58:29.064Z,97640.08
2019-05-14T14:00:59.375Z,97643.09
2019-05-14T14:03:29.644Z,97644.23
2019-05-14T14:05:59.683Z,97639.43
2019-05-14T14:08:29.478Z,97647.63
2019-05-14T14:11:02.679Z,97644.70
2019-05-14T14:13:31.545Z,97647.28
2019-05-14T14:16:01.374Z,97644.34
2019-05-14T14:18:30.962Z,97633.47
2019-05-14T14:21:00.629Z,97632.81
2019-05-14T14:23:31.207Z,97631.48
2019-05-14T14:26:01.534Z,97623.05
2019-05-14T14:28:31.229Z,97619.27
2019-05-14T14:31:00.963Z,97620.22
2019-05-14T14:33:30.557Z,97610.20
2019-05-14T14:36:00.141Z,97608.98
2019-05-14T14:38:29.865Z,97605.73
2019-05-14T14:40:59.411Z,97601.79
2019-05-14T14:43:29.614Z,97609.30
2019-05-14T14:45:59.602Z,97600.34
2019-05-14T14:48:30.485Z,97598.32
2019-05-14T14:51:00.548Z,97599.30
2019-05-14T14:53:43.101Z,97596.98
2019-05-14T14:56:01.534Z,97598.27
2019-05-14T14:58:31.319Z,97590.43
2019-05-14T15:01:00.914Z,97589.25
2019-05-14T15:03:30.712Z,97588.25
2019-05-14T15:06:00.461Z,97584.60
2019-05-14T15:08:29.955Z,97588.16
2019-05-14T15:10:59.586Z,97576.72
2019-05-14T15:13:29.158Z,97568.39
2019-05-14T15:16:01.027Z,97570.98
2019-05-14T15:18:30.269Z,97557.19
2019-05-14T15:20:59.910Z,97552.08
2019-05-14T15:23:29.571Z,97553.40
2019-05-14T15:25:59.377Z,97548.67
2019-05-14T15:28:29.201Z,97544.84
2019-05-14T15:30:59.468Z,97539.74
2019-05-14T15:33:29.553Z,97541.16
2019-05-14T15:35:59.475Z,97546.80
2019-05-14T15:38:30.652Z,97546.11
2019-05-14T15:41:00.263Z,97537.51
2019-05-14T15:43:30.231Z,97534.31
2019-05-14T15:46:00.100Z,97526.77
2019-05-14T15:48:29.596Z,97522.80
2019-05-14T15:50:59.974Z,97515.09
2019-05-14T15:53:29.724Z,97518.60
2019-05-14T15:55:59.443Z,97516.33
2019-05-14T15:58:30.312Z,97517.10
2019-05-14T16:01:01.202Z,97523.58
2019-05-14T16:03:30.826Z,97521.70
2019-05-14T16:06:00.506Z,97510.04
2019-05-14T16:08:30.083Z,97515.59
2019-05-14T16:11:00.350Z,97520.60
2019-05-14T16:13:29.953Z,97518.11
2019-05-14T16:15:59.354Z,97520.38
2019-05-14T16:18:29.217Z,97512.45
2019-05-14T16:20:59.503Z,97510.59
2019-05-14T16:23:29.242Z,97512.28
2019-05-14T16:25:59.110Z,97511.17
2019-05-14T16:28:29.214Z,97509.67
2019-05-14T16:30:59.373Z,97517.05
2019-05-14T16:33:29.581Z,97514.95
2019-05-14T16:35:59.685Z,97519.78
2019-05-14T16:38:29.306Z,97517.29
2019-05-14T16:40:59.838Z,97516.59
2019-05-14T16:43:32.129Z,97519.23
2019-05-14T16:46:00.722Z,97518.28
2019-05-14T16:48:30.595Z,97509.53
2019-05-14T16:51:00.064Z,97514.81
2019-05-14T16:53:29.700Z,97508.85
2019-05-14T16:55:59.382Z,97513.49
2019-05-14T16:58:29.350Z,97514.30
2019-05-14T17:00:59.159Z,97506.34
2019-05-14T17:03:29.802Z,97495.45
2019-05-14T17:05:59.822Z,97492.27
2019-05-14T17:08:29.588Z,97495.31
2019-05-14T17:10:59.531Z,97500.74
2019-05-14T17:13:28.945Z,97497.23
2019-05-14T17:15:59.098Z,97493.80
2019-05-14T17:18:28.877Z,97487.29
2019-05-14T17:20:59.396Z,97491.98
2019-05-14T17:23:29.068Z,97491.22
2019-05-14T17:25:58.681Z,97490.20
2019-05-14T17:28:28.850Z,97491.84
2019-05-14T17:30:59.038Z,97492.48
2019-05-14T17:33:29.257Z,97498.23
2019-05-14T17:35:59.088Z,97498.72
2019-05-14T17:38:29.332Z,97503.64
2019-05-14T17:40:59.703Z,97508.25
2019-05-14T17:43:29.920Z,97510.00
2019-05-14T17:45:59.701Z,97505.85
2019-05-14T17:48:29.536Z,97509.59
2019-05-14T17:50:59.369Z,97509.88
2019-05-14T17:53:29.267Z,97505.60
2019-05-14T17:55:59.285Z,97506.03
2019-05-14T17:58:29.262Z,97506.89
2019-05-14T18:00:59.126Z,97512.72
2019-05-14T18:03:29.159Z,97514.54
2019-05-14T18:05:59.060Z,97506.52
2019-05-14T18:08:29.986Z,97511.95
2019-05-14T18:11:01.742Z,97513.91
2019-05-14T18:13:31.145Z,97517.28
2019-05-14T18:16:00.772Z,97516.30
2019-05-14T18:18:30.261Z,97517.06
2019-05-14T18:21:00.441Z,97521.45
2019-05-14T18:23:30.339Z,97516.14
2019-05-14T18:26:07.973Z,97517.03
2019-05-14T18:28:31.547Z,97516.79
2019-05-14T18:31:01.442Z,97518.97
2019-05-14T18:33:31.671Z,97527.36
2019-05-14T18:36:01.521Z,97523.98
2019-05-14T18:38:31.122Z,97525.24
2019-05-14T18:41:01.080Z,97528.44
2019-05-14T18:43:30.948Z,97525.45
2019-05-14T18:46:00.522Z,97519.28
2019-05-14T18:48:30.145Z,97522.75
2019-05-14T18:50:59.688Z,97527.02
2019-05-14T18:53:29.564Z,97524.72
2019-05-14T18:55:59.822Z,97523.13
2019-05-14T18:58:29.605Z,97528.69
2019-05-14T19:00:59.449Z,97531.97
2019-05-14T19:03:29.389Z,97532.19
2019-05-14T19:05:59.004Z,97535.69
2019-05-14T19:08:29.038Z,97543.16
2019-05-14T19:10:59.488Z,97543.50
2019-05-14T19:13:30.110Z,97536.03
2019-05-14T19:15:59.594Z,97533.60
2019-05-14T19:18:29.456Z,97537.27
2019-05-14T19:20:59.432Z,97532.00
2019-05-14T19:23:29.144Z,97530.96
2019-05-14T19:25:59.209Z,97526.34
2019-05-14T19:28:28.987Z,97520.09
2019-05-14T19:30:59.616Z,97521.20
2019-05-14T19:33:29.524Z,97520.34
2019-05-14T19:35:59.057Z,97508.73
2019-05-14T19:38:28.751Z,97502.31
2019-05-14T19:40:58.132Z,97492.06
2019-05-14T19:43:29.062Z,97497.56
2019-05-14T19:45:59.092Z,97510.94
2019-05-14T19:48:32.645Z,97510.11
2019-05-14T19:50:59.927Z,97505.92
2019-05-14T19:53:29.543Z,97511.28
2019-05-14T19:55:59.461Z,97520.46
2019-05-14T19:58:29.420Z,97516.27
2019-05-14T20:00:58.938Z,97518.91
2019-05-14T20:03:29.187Z,97522.27
2019-05-14T20:05:58.800Z,97520.31
2019-05-14T20:08:29.583Z,97525.59
2019-05-14T20:10:59.451Z,97524.13
2019-05-14T20:13:29.272Z,97524.19
2019-05-14T20:15:59.184Z,97523.19
2019-05-14T20:18:30.267Z,97528.66
2019-05-14T20:21:00.071Z,97523.19
2019-05-14T20:23:29.842Z,97518.45
2019-05-14T20:25:59.314Z,97522.63
2019-05-14T20:28:29.215Z,97519.69
2019-05-14T20:30:58.968Z,97525.34
2019-05-14T20:33:28.450Z,97522.09
2019-05-14T20:35:59.046Z,97523.81
2019-05-14T20:38:28.963Z,97522.00
2019-05-14T20:40:58.738Z,97523.96
2019-05-14T20:43:29.093Z,97521.70
2019-05-14T20:45:59.451Z,97519.48
2019-05-14T20:48:29.067Z,97517.48
2019-05-14T20:50:58.618Z,97524.56
2019-05-14T20:53:29.153Z,97522.93
2019-05-14T20:55:58.955Z,97517.88
2019-05-14T20:58:28.414Z,97516.27
2019-05-14T21:00:58.189Z,97519.09
2019-05-14T21:03:29.035Z,97518.48
2019-05-14T21:05:58.770Z,97509.67
2019-05-14T21:08:28.380Z,97514.13
2019-05-14T21:10:58.718Z,97508.64
2019-05-14T21:13:28.727Z,97508.41
2019-05-14T21:15:58.109Z,97509.22
2019-05-14T21:18:35.024Z,97511.20
2019-05-14T21:20:59.004Z,97506.15
2019-05-14T21:23:29.985Z,97514.38
2019-05-14T21:25:59.739Z,97520.06
2019-05-14T21:28:30.088Z,97525.31
2019-05-14T21:30:59.858Z,97525.25
2019-05-14T21:33:30.370Z,97536.24
2019-05-14T21:35:59.955Z,97533.43
2019-05-14T21:38:29.428Z,97536.02
2019-05-14T21:40:58.998Z,97535.30
2019-05-14T21:43:29.065Z,97536.98
2019-05-14T21:45:58.775Z,97531.99
2019-05-14T21:48:28.859Z,97530.79
2019-05-14T21:51:00.597Z,97529.23
2019-05-14T21:53:29.449Z,97526.00
2019-05-14T21:55:59.136Z,97525.73
2019-05-14T21:58:29.222Z,97524.59
2019-05-14T22:00:59.920Z,97526.54
2019-05-14T22:03:29.759Z,97530.41
2019-05-14T22:05:59.597Z,97520.77
2019-05-14T22:08:30.398Z,97525.34
2019-05-14T22:11:00.367Z,97519.34
2019-05-14T22:13:30.150Z,97519.83
2019-05-14T22:15:59.832Z,97517.42
2019-05-14T22:18:29.516Z,97519.94
2019-05-14T22:20:59.431Z,97505.34
2019-05-14T22:23:29.317Z,97518.25
2019-05-14T22:25:58.982Z,97509.44
2019-05-14T22:28:28.901Z,97513.46
2019-05-14T22:30:58.853Z,97506.41
2019-05-14T22:33:28.557Z,97508.40
2019-05-14T22:35:58.216Z,97512.70
2019-05-14T22:38:29.358Z,97507.33
2019-05-14T22:40:59.318Z,97508.35
2019-05-14T22:43:28.971Z,97515.27
2019-05-14T22:45:59.079Z,97507.03
2019-05-14T22:48:28.942Z,97506.50
2019-05-14T22:50:59.268Z,97504.88
2019-05-14T22:53:30.354Z,97509.78
2019-05-14T22:56:00.153Z,97511.06
2019-05-14T22:58:29.841Z,97520.94
2019-05-14T23:01:13.247Z,97521.89
2019-05-14T23:03:30.841Z,97512.22
2019-05-14T23:06:00.685Z,97507.81
2019-05-14T23:08:30.387Z,97510.13
2019-05-14T23:11:00.392Z,97510.53
2019-05-14T23:13:30.092Z,97512.92
2019-05-14T23:15:59.580Z,97513.99
2019-05-14T23:18:29.243Z,97510.66
2019-05-14T23:20:59.270Z,97503.33
2019-05-14T23:23:29.053Z,97506.56
2019-05-14T23:25:58.897Z,97509.82
2019-05-14T23:28:41.719Z,97511.77
2019-05-14T23:30:59.847Z,97509.25
2019-05-14T23:33:29.324Z,97515.54
2019-05-14T23:35:59.027Z,97510.40
2019-05-14T23:38:29.100Z,97516.20
2019-05-14T23:41:00.077Z,97509.70
2019-05-14T23:43:29.684Z,97507.16
2019-05-14T23:45:59.393Z,97516.61
2019-05-14T23:48:29.018Z,97516.58
2019-05-14T23:50:58.559Z,97510.76
2019-05-14T23:53:29.102Z,97513.21
2019-05-14T23:55:58.844Z,97513.50
2019-05-14T23:58:28.927Z,97507.50
